sensor_id;sensor_type;location;lat;lon;timestamp;temperature;humidity
19755;DHT22;10036;47.812;9.274;2022-11-20T00:01:04;3.90;99.90
19755;DHT22;10036;47.812;9.274;2022-11-20T00:03:31;3.70;99.90
19755;DHT22;10036;47.812;9.274;2022-11-20T00:06:01;3.40;99.90
19755;DHT22;10036;47.812;9.274;2022-11-20T00:08:28;3.20;99.90
19755;DHT22;10036;47.812;9.274;2022-11-20T00:10:55;3.10;99.90
19755;DHT22;10036;47.812;9.274;2022-11-20T00:13:22;3.10;99.90
19755;DHT22;10036;47.812;9.274;2022-11-20T00:15:50;3.20;99.90
19755;DHT22;10036;47.812;9.274;2022-11-20T00:18:22;3.20;99.90
19755;DHT22;10036;47.812;9.274;2022-11-20T00:20:49;3.50;99.90
19755;DHT22;10036;47.812;9.274;2022-11-20T00:23:18;3.40;99.90
19755;DHT22;10036;47.812;9.274;2022-11-20T00:25:44;3.50;99.90
19755;DHT22;10036;47.812;9.274;2022-11-20T00:28:11;3.80;99.90
19755;DHT22;10036;47.812;9.274;2022-11-20T00:30:38;3.70;99.90
19755;DHT22;10036;47.812;9.274;2022-11-20T00:33:05;3.70;99.90
19755;DHT22;10036;47.812;9.274;2022-11-20T00:35:32;3.60;99.90
19755;DHT22;10036;47.812;9.274;2022-11-20T00:37:59;3.50;99.90
19755;DHT22;10036;47.812;9.274;2022-11-20T00:40:27;3.50;99.90
19755;DHT22;10036;47.812;9.274;2022-11-20T00:42:54;3.40;99.90
19755;DHT22;10036;47.812;9.274;2022-11-20T00:45:40;3.30;99.90
19755;DHT22;10036;47.812;9.274;2022-11-20T00:48:07;3.50;99.90
19755;DHT22;10036;47.812;9.274;2022-11-20T00:50:34;3.50;99.90
19755;DHT22;10036;47.812;9.274;2022-11-20T00:53:00;3.50;99.90
19755;DHT22;10036;47.812;9.274;2022-11-20T00:55:29;3.40;99.90
19755;DHT22;10036;47.812;9.274;2022-11-20T00:57:56;3.20;99.90
19755;DHT22;10036;47.812;9.274;2022-11-20T01:00:22;3.20;99.90
19755;DHT22;10036;47.812;9.274;2022-11-20T01:02:49;3.20;99.90
19755;DHT22;10036;47.812;9.274;2022-11-20T01:05:16;3.20;99.90
19755;DHT22;10036;47.812;9.274;2022-11-20T01:07:43;3.20;99.90
19755;DHT22;10036;47.812;9.274;2022-11-20T01:10:10;3.30;99.90
19755;DHT22;10036;47.812;9.274;2022-11-20T01:12:38;3.50;99.90
19755;DHT22;10036;47.812;9.274;2022-11-20T01:15:06;3.60;99.90
19755;DHT22;10036;47.812;9.274;2022-11-20T01:17:33;3.70;99.90
19755;DHT22;10036;47.812;9.274;2022-11-20T01:20:00;3.90;99.90
19755;DHT22;10036;47.812;9.274;2022-11-20T01:22:27;3.80;99.90
19755;DHT22;10036;47.812;9.274;2022-11-20T01:24:54;3.90;99.90
19755;DHT22;10036;47.812;9.274;2022-11-20T01:27:21;3.80;99.90
19755;DHT22;10036;47.812;9.274;2022-11-20T01:29:49;3.90;99.90
19755;DHT22;10036;47.812;9.274;2022-11-20T01:32:16;3.80;99.90
19755;DHT22;10036;47.812;9.274;2022-11-20T01:34:43;3.70;99.90
19755;DHT22;10036;47.812;9.274;2022-11-20T01:37:10;3.70;99.90
19755;DHT22;10036;47.812;9.274;2022-11-20T01:39:37;3.60;99.90
19755;DHT22;10036;47.812;9.274;2022-11-20T01:42:03;3.60;99.90
19755;DHT22;10036;47.812;9.274;2022-11-20T01:47:51;3.70;99.90
19755;DHT22;10036;47.812;9.274;2022-11-20T01:50:22;3.70;99.90
19755;DHT22;10036;47.812;9.274;2022-11-20T01:52:54;3.70;99.90
19755;DHT22;10036;47.812;9.274;2022-11-20T01:55:23;3.70;99.90
19755;DHT22;10036;47.812;9.274;2022-11-20T01:57:52;3.80;99.90
19755;DHT22;10036;47.812;9.274;2022-11-20T02:00:20;3.80;99.90
19755;DHT22;10036;47.812;9.274;2022-11-20T02:02:53;3.90;99.90
19755;DHT22;10036;47.812;9.274;2022-11-20T02:05:25;4.00;99.90
19755;DHT22;10036;47.812;9.274;2022-11-20T02:07:54;3.90;99.90
19755;DHT22;10036;47.812;9.274;2022-11-20T02:10:22;4.00;99.90
19755;DHT22;10036;47.812;9.274;2022-11-20T02:12:50;4.00;99.90
19755;DHT22;10036;47.812;9.274;2022-11-20T02:15:35;4.20;99.90
19755;DHT22;10036;47.812;9.274;2022-11-20T02:18:04;4.10;99.90
19755;DHT22;10036;47.812;9.274;2022-11-20T02:20:32;4.20;99.90
19755;DHT22;10036;47.812;9.274;2022-11-20T02:23:02;4.20;99.90
19755;DHT22;10036;47.812;9.274;2022-11-20T02:25:32;4.20;99.90
19755;DHT22;10036;47.812;9.274;2022-11-20T02:28:00;4.20;99.90
19755;DHT22;10036;47.812;9.274;2022-11-20T02:30:27;4.10;99.90
19755;DHT22;10036;47.812;9.274;2022-11-20T02:32:54;4.30;99.90
19755;DHT22;10036;47.812;9.274;2022-11-20T02:35:53;4.20;99.90
19755;DHT22;10036;47.812;9.274;2022-11-20T02:38:20;4.30;99.90
19755;DHT22;10036;47.812;9.274;2022-11-20T02:40:49;4.30;99.90
19755;DHT22;10036;47.812;9.274;2022-11-20T02:43:16;4.30;99.90
19755;DHT22;10036;47.812;9.274;2022-11-20T02:45:42;4.40;99.90
19755;DHT22;10036;47.812;9.274;2022-11-20T02:48:09;4.40;99.90
19755;DHT22;10036;47.812;9.274;2022-11-20T02:50:37;4.40;99.90
19755;DHT22;10036;47.812;9.274;2022-11-20T02:53:05;4.60;99.90
19755;DHT22;10036;47.812;9.274;2022-11-20T02:55:32;4.50;99.90
19755;DHT22;10036;47.812;9.274;2022-11-20T02:58:00;4.60;99.90
19755;DHT22;10036;47.812;9.274;2022-11-20T03:00:27;4.60;99.90
19755;DHT22;10036;47.812;9.274;2022-11-20T03:02:54;4.60;99.90
19755;DHT22;10036;47.812;9.274;2022-11-20T03:05:21;4.70;99.90
19755;DHT22;10036;47.812;9.274;2022-11-20T03:07:48;4.70;99.90
19755;DHT22;10036;47.812;9.274;2022-11-20T03:10:15;4.70;99.90
19755;DHT22;10036;47.812;9.274;2022-11-20T03:12:42;4.70;99.90
19755;DHT22;10036;47.812;9.274;2022-11-20T03:15:10;4.70;99.90
19755;DHT22;10036;47.812;9.274;2022-11-20T03:17:37;4.80;99.90
19755;DHT22;10036;47.812;9.274;2022-11-20T03:20:05;4.80;99.90
19755;DHT22;10036;47.812;9.274;2022-11-20T03:22:32;4.90;99.90
19755;DHT22;10036;47.812;9.274;2022-11-20T03:24:59;4.90;99.90
19755;DHT22;10036;47.812;9.274;2022-11-20T03:27:26;4.90;99.90
19755;DHT22;10036;47.812;9.274;2022-11-20T03:29:53;4.90;99.90
19755;DHT22;10036;47.812;9.274;2022-11-20T03:32:21;4.90;99.90
19755;DHT22;10036;47.812;9.274;2022-11-20T03:35:07;4.90;99.90
19755;DHT22;10036;47.812;9.274;2022-11-20T03:37:34;4.80;99.90
19755;DHT22;10036;47.812;9.274;2022-11-20T03:40:01;4.80;99.90
19755;DHT22;10036;47.812;9.274;2022-11-20T03:42:28;4.80;99.90
19755;DHT22;10036;47.812;9.274;2022-11-20T03:45:13;4.80;99.90
19755;DHT22;10036;47.812;9.274;2022-11-20T03:47:42;4.80;99.90
19755;DHT22;10036;47.812;9.274;2022-11-20T03:50:10;4.80;99.90
19755;DHT22;10036;47.812;9.274;2022-11-20T03:52:39;4.70;99.90
19755;DHT22;10036;47.812;9.274;2022-11-20T03:55:06;4.70;99.90
19755;DHT22;10036;47.812;9.274;2022-11-20T03:57:34;4.60;99.90
19755;DHT22;10036;47.812;9.274;2022-11-20T04:00:00;4.60;99.90
19755;DHT22;10036;47.812;9.274;2022-11-20T04:02:27;4.60;99.90
19755;DHT22;10036;47.812;9.274;2022-11-20T04:08:18;4.50;99.90
19755;DHT22;10036;47.812;9.274;2022-11-20T04:10:45;4.40;99.90
19755;DHT22;10036;47.812;9.274;2022-11-20T04:13:12;4.30;99.90
19755;DHT22;10036;47.812;9.274;2022-11-20T04:15:38;4.20;99.90
19755;DHT22;10036;47.812;9.274;2022-11-20T04:18:05;4.20;99.90
19755;DHT22;10036;47.812;9.274;2022-11-20T04:20:32;4.10;99.90
19755;DHT22;10036;47.812;9.274;2022-11-20T04:23:00;4.00;99.90
19755;DHT22;10036;47.812;9.274;2022-11-20T04:25:47;3.90;99.90
19755;DHT22;10036;47.812;9.274;2022-11-20T04:28:14;4.00;99.90
19755;DHT22;10036;47.812;9.274;2022-11-20T04:30:41;3.90;99.90
19755;DHT22;10036;47.812;9.274;2022-11-20T04:33:08;3.90;99.90
19755;DHT22;10036;47.812;9.274;2022-11-20T04:35:35;3.70;99.90
19755;DHT22;10036;47.812;9.274;2022-11-20T04:38:02;3.60;99.90
19755;DHT22;10036;47.812;9.274;2022-11-20T04:40:30;3.60;99.90
19755;DHT22;10036;47.812;9.274;2022-11-20T04:42:58;3.50;99.90
19755;DHT22;10036;47.812;9.274;2022-11-20T04:45:25;3.40;99.90
19755;DHT22;10036;47.812;9.274;2022-11-20T04:47:52;3.30;99.90
19755;DHT22;10036;47.812;9.274;2022-11-20T04:50:19;3.30;99.90
19755;DHT22;10036;47.812;9.274;2022-11-20T04:52:46;3.10;99.90
19755;DHT22;10036;47.812;9.274;2022-11-20T04:55:13;3.20;99.90
19755;DHT22;10036;47.812;9.274;2022-11-20T04:57:40;3.00;99.90
19755;DHT22;10036;47.812;9.274;2022-11-20T05:00:10;3.10;99.90
19755;DHT22;10036;47.812;9.274;2022-11-20T05:02:37;3.00;99.90
19755;DHT22;10036;47.812;9.274;2022-11-20T05:05:04;3.00;99.90
19755;DHT22;10036;47.812;9.274;2022-11-20T05:07:31;3.00;99.90
19755;DHT22;10036;47.812;9.274;2022-11-20T05:09:58;3.00;99.90
19755;DHT22;10036;47.812;9.274;2022-11-20T05:12:25;3.20;99.90
19755;DHT22;10036;47.812;9.274;2022-11-20T05:14:52;3.10;99.90
19755;DHT22;10036;47.812;9.274;2022-11-20T05:17:20;3.00;99.90
19755;DHT22;10036;47.812;9.274;2022-11-20T05:19:47;3.00;99.90
19755;DHT22;10036;47.812;9.274;2022-11-20T05:22:14;3.10;99.90
19755;DHT22;10036;47.812;9.274;2022-11-20T05:24:40;3.20;99.90
19755;DHT22;10036;47.812;9.274;2022-11-20T05:27:07;3.20;99.90
19755;DHT22;10036;47.812;9.274;2022-11-20T05:29:34;3.20;99.90
19755;DHT22;10036;47.812;9.274;2022-11-20T05:32:01;3.20;99.90
19755;DHT22;10036;47.812;9.274;2022-11-20T05:34:29;3.30;99.90
19755;DHT22;10036;47.812;9.274;2022-11-20T05:36:57;3.30;99.90
19755;DHT22;10036;47.812;9.274;2022-11-20T05:39:24;3.40;99.90
19755;DHT22;10036;47.812;9.274;2022-11-20T05:41:51;3.50;99.90
19755;DHT22;10036;47.812;9.274;2022-11-20T05:44:38;3.60;99.90
19755;DHT22;10036;47.812;9.274;2022-11-20T05:47:05;3.50;99.90
19755;DHT22;10036;47.812;9.274;2022-11-20T05:49:34;3.50;99.90
19755;DHT22;10036;47.812;9.274;2022-11-20T05:52:00;3.60;99.90
19755;DHT22;10036;47.812;9.274;2022-11-20T05:54:27;3.70;99.90
19755;DHT22;10036;47.812;9.274;2022-11-20T05:56:54;3.70;99.90
19755;DHT22;10036;47.812;9.274;2022-11-20T05:59:21;3.70;99.90
19755;DHT22;10036;47.812;9.274;2022-11-20T06:01:48;3.70;99.90
19755;DHT22;10036;47.812;9.274;2022-11-20T06:04:15;3.70;99.90
19755;DHT22;10036;47.812;9.274;2022-11-20T06:06:43;3.80;99.90
19755;DHT22;10036;47.812;9.274;2022-11-20T06:09:10;3.70;99.90
19755;DHT22;10036;47.812;9.274;2022-11-20T06:11:37;3.80;99.90
19755;DHT22;10036;47.812;9.274;2022-11-20T06:14:04;3.90;99.90
19755;DHT22;10036;47.812;9.274;2022-11-20T06:16:31;3.90;99.90
19755;DHT22;10036;47.812;9.274;2022-11-20T06:18:58;3.90;99.90
19755;DHT22;10036;47.812;9.274;2022-11-20T06:21:25;4.00;99.90
19755;DHT22;10036;47.812;9.274;2022-11-20T06:23:53;4.00;99.90
19755;DHT22;10036;47.812;9.274;2022-11-20T06:26:22;4.00;99.90
19755;DHT22;10036;47.812;9.274;2022-11-20T06:28:49;4.00;99.90
19755;DHT22;10036;47.812;9.274;2022-11-20T06:31:18;4.00;99.90
19755;DHT22;10036;47.812;9.274;2022-11-20T06:33:46;4.10;99.90
19755;DHT22;10036;47.812;9.274;2022-11-20T06:36:14;4.10;99.90
19755;DHT22;10036;47.812;9.274;2022-11-20T06:38:43;4.10;99.90
19755;DHT22;10036;47.812;9.274;2022-11-20T06:41:13;4.20;99.90
19755;DHT22;10036;47.812;9.274;2022-11-20T06:43:40;4.20;99.90
19755;DHT22;10036;47.812;9.274;2022-11-20T06:46:09;4.20;99.90
19755;DHT22;10036;47.812;9.274;2022-11-20T06:48:36;4.20;99.90
19755;DHT22;10036;47.812;9.274;2022-11-20T06:51:04;4.20;99.90
19755;DHT22;10036;47.812;9.274;2022-11-20T06:53:31;4.20;99.90
19755;DHT22;10036;47.812;9.274;2022-11-20T06:55:59;4.30;99.90
19755;DHT22;10036;47.812;9.274;2022-11-20T06:58:28;4.30;99.90
19755;DHT22;10036;47.812;9.274;2022-11-20T07:00:58;4.30;99.90
19755;DHT22;10036;47.812;9.274;2022-11-20T07:03:25;4.30;99.90
19755;DHT22;10036;47.812;9.274;2022-11-20T07:05:54;4.30;99.90
19755;DHT22;10036;47.812;9.274;2022-11-20T07:08:21;4.40;99.90
19755;DHT22;10036;47.812;9.274;2022-11-20T07:10:48;4.30;99.90
19755;DHT22;10036;47.812;9.274;2022-11-20T07:13:15;4.40;99.90
19755;DHT22;10036;47.812;9.274;2022-11-20T07:15:43;4.30;99.90
19755;DHT22;10036;47.812;9.274;2022-11-20T07:18:10;4.50;99.90
19755;DHT22;10036;47.812;9.274;2022-11-20T07:20:37;4.50;99.90
19755;DHT22;10036;47.812;9.274;2022-11-20T07:23:04;4.50;99.90
19755;DHT22;10036;47.812;9.274;2022-11-20T07:25:31;4.60;99.90
19755;DHT22;10036;47.812;9.274;2022-11-20T07:27:58;4.50;99.90
19755;DHT22;10036;47.812;9.274;2022-11-20T07:30:25;4.60;99.90
19755;DHT22;10036;47.812;9.274;2022-11-20T07:32:55;4.60;99.90
19755;DHT22;10036;47.812;9.274;2022-11-20T07:38:29;4.60;99.90
19755;DHT22;10036;47.812;9.274;2022-11-20T07:40:56;4.60;99.90
19755;DHT22;10036;47.812;9.274;2022-11-20T07:43:23;4.60;99.90
19755;DHT22;10036;47.812;9.274;2022-11-20T07:49:14;4.70;99.90
19755;DHT22;10036;47.812;9.274;2022-11-20T07:51:40;4.80;99.90
19755;DHT22;10036;47.812;9.274;2022-11-20T07:54:07;4.80;99.90
19755;DHT22;10036;47.812;9.274;2022-11-20T07:56:34;5.00;99.90
19755;DHT22;10036;47.812;9.274;2022-11-20T07:59:01;5.00;99.90
19755;DHT22;10036;47.812;9.274;2022-11-20T08:01:29;5.00;99.90
19755;DHT22;10036;47.812;9.274;2022-11-20T08:03:56;5.10;99.90
19755;DHT22;10036;47.812;9.274;2022-11-20T08:06:24;5.10;99.90
19755;DHT22;10036;47.812;9.274;2022-11-20T08:08:51;5.20;99.90
19755;DHT22;10036;47.812;9.274;2022-11-20T08:11:18;5.20;99.90
19755;DHT22;10036;47.812;9.274;2022-11-20T08:14:02;5.20;99.90
19755;DHT22;10036;47.812;9.274;2022-11-20T08:16:38;5.30;99.90
19755;DHT22;10036;47.812;9.274;2022-11-20T08:19:05;5.30;99.90
19755;DHT22;10036;47.812;9.274;2022-11-20T08:21:34;5.40;99.90
19755;DHT22;10036;47.812;9.274;2022-11-20T08:24:01;5.40;99.90
19755;DHT22;10036;47.812;9.274;2022-11-20T08:26:28;5.40;99.90
19755;DHT22;10036;47.812;9.274;2022-11-20T08:28:55;5.40;99.90
19755;DHT22;10036;47.812;9.274;2022-11-20T08:31:23;5.50;99.90
19755;DHT22;10036;47.812;9.274;2022-11-20T08:33:51;5.50;99.90
19755;DHT22;10036;47.812;9.274;2022-11-20T08:36:19;5.50;99.90
19755;DHT22;10036;47.812;9.274;2022-11-20T08:38:48;5.60;99.90
19755;DHT22;10036;47.812;9.274;2022-11-20T08:41:16;5.60;99.90
19755;DHT22;10036;47.812;9.274;2022-11-20T08:43:54;5.70;99.90
19755;DHT22;10036;47.812;9.274;2022-11-20T08:46:22;5.70;99.90
19755;DHT22;10036;47.812;9.274;2022-11-20T08:48:49;5.70;99.90
19755;DHT22;10036;47.812;9.274;2022-11-20T08:51:16;5.90;99.90
19755;DHT22;10036;47.812;9.274;2022-11-20T08:53:43;5.90;99.90
19755;DHT22;10036;47.812;9.274;2022-11-20T08:56:11;5.90;99.90
19755;DHT22;10036;47.812;9.274;2022-11-20T08:58:39;5.90;99.90
19755;DHT22;10036;47.812;9.274;2022-11-20T09:01:05;6.10;99.90
19755;DHT22;10036;47.812;9.274;2022-11-20T09:03:33;6.10;99.90
19755;DHT22;10036;47.812;9.274;2022-11-20T09:06:02;6.10;99.90
19755;DHT22;10036;47.812;9.274;2022-11-20T09:08:29;6.10;99.90
19755;DHT22;10036;47.812;9.274;2022-11-20T09:10:57;6.40;99.90
19755;DHT22;10036;47.812;9.274;2022-11-20T09:13:27;6.20;99.90
19755;DHT22;10036;47.812;9.274;2022-11-20T09:15:54;6.10;99.90
19755;DHT22;10036;47.812;9.274;2022-11-20T09:18:22;6.10;99.90
19755;DHT22;10036;47.812;9.274;2022-11-20T09:20:49;6.20;99.90
19755;DHT22;10036;47.812;9.274;2022-11-20T09:23:16;6.30;99.90
19755;DHT22;10036;47.812;9.274;2022-11-20T09:25:43;6.30;99.90
19755;DHT22;10036;47.812;9.274;2022-11-20T09:28:10;6.20;99.90
19755;DHT22;10036;47.812;9.274;2022-11-20T09:30:39;6.30;99.90
19755;DHT22;10036;47.812;9.274;2022-11-20T09:33:06;6.30;99.90
19755;DHT22;10036;47.812;9.274;2022-11-20T09:35:33;6.30;99.90
19755;DHT22;10036;47.812;9.274;2022-11-20T09:38:04;6.30;99.90
19755;DHT22;10036;47.812;9.274;2022-11-20T09:40:32;6.40;99.90
19755;DHT22;10036;47.812;9.274;2022-11-20T09:43:05;6.60;99.90
19755;DHT22;10036;47.812;9.274;2022-11-20T09:45:48;6.40;99.90
19755;DHT22;10036;47.812;9.274;2022-11-20T09:48:26;6.50;99.90
19755;DHT22;10036;47.812;9.274;2022-11-20T09:51:06;6.40;99.90
19755;DHT22;10036;47.812;9.274;2022-11-20T09:53:44;6.50;99.90
19755;DHT22;10036;47.812;9.274;2022-11-20T09:56:14;6.70;99.90
19755;DHT22;10036;47.812;9.274;2022-11-20T09:58:43;6.70;99.90
19755;DHT22;10036;47.812;9.274;2022-11-20T10:01:15;6.80;99.90
19755;DHT22;10036;47.812;9.274;2022-11-20T10:03:52;6.90;99.90
19755;DHT22;10036;47.812;9.274;2022-11-20T10:06:26;6.80;99.90
19755;DHT22;10036;47.812;9.274;2022-11-20T10:08:58;6.90;99.90
19755;DHT22;10036;47.812;9.274;2022-11-20T10:11:33;6.90;99.90
19755;DHT22;10036;47.812;9.274;2022-11-20T10:14:11;6.80;99.90
19755;DHT22;10036;47.812;9.274;2022-11-20T10:16:49;6.70;99.90
19755;DHT22;10036;47.812;9.274;2022-11-20T10:19:31;6.90;99.90
19755;DHT22;10036;47.812;9.274;2022-11-20T10:22:08;6.70;99.90
19755;DHT22;10036;47.812;9.274;2022-11-20T10:27:56;6.80;99.90
19755;DHT22;10036;47.812;9.274;2022-11-20T10:30:30;6.80;99.90
19755;DHT22;10036;47.812;9.274;2022-11-20T10:33:13;6.90;99.90
19755;DHT22;10036;47.812;9.274;2022-11-20T10:38:49;6.90;99.90
19755;DHT22;10036;47.812;9.274;2022-11-20T10:41:23;7.00;99.90
19755;DHT22;10036;47.812;9.274;2022-11-20T10:43:53;6.80;99.90
19755;DHT22;10036;47.812;9.274;2022-11-20T10:46:25;6.80;99.90
19755;DHT22;10036;47.812;9.274;2022-11-20T10:48:53;6.90;99.90
19755;DHT22;10036;47.812;9.274;2022-11-20T10:51:31;6.90;99.90
19755;DHT22;10036;47.812;9.274;2022-11-20T10:54:12;6.80;99.90
19755;DHT22;10036;47.812;9.274;2022-11-20T10:56:46;6.80;99.90
19755;DHT22;10036;47.812;9.274;2022-11-20T10:59:55;6.90;99.90
19755;DHT22;10036;47.812;9.274;2022-11-20T11:02:35;6.90;99.90
19755;DHT22;10036;47.812;9.274;2022-11-20T11:05:16;6.90;99.90
19755;DHT22;10036;47.812;9.274;2022-11-20T11:07:44;6.90;99.90
19755;DHT22;10036;47.812;9.274;2022-11-20T11:10:16;7.00;99.90
19755;DHT22;10036;47.812;9.274;2022-11-20T11:12:45;6.90;99.90
19755;DHT22;10036;47.812;9.274;2022-11-20T11:15:14;6.80;99.90
19755;DHT22;10036;47.812;9.274;2022-11-20T11:17:50;6.90;99.90
19755;DHT22;10036;47.812;9.274;2022-11-20T11:20:20;6.90;99.90
19755;DHT22;10036;47.812;9.274;2022-11-20T11:22:49;6.90;99.90
19755;DHT22;10036;47.812;9.274;2022-11-20T11:28:38;7.00;99.90
19755;DHT22;10036;47.812;9.274;2022-11-20T11:31:05;6.90;99.90
19755;DHT22;10036;47.812;9.274;2022-11-20T11:33:32;6.90;99.90
19755;DHT22;10036;47.812;9.274;2022-11-20T11:36:03;7.00;99.90
19755;DHT22;10036;47.812;9.274;2022-11-20T11:38:34;7.00;99.90
19755;DHT22;10036;47.812;9.274;2022-11-20T11:41:02;7.00;99.90
19755;DHT22;10036;47.812;9.274;2022-11-20T11:43:32;7.00;99.90
19755;DHT22;10036;47.812;9.274;2022-11-20T11:46:31;7.10;99.90
19755;DHT22;10036;47.812;9.274;2022-11-20T11:49:01;7.10;99.90
19755;DHT22;10036;47.812;9.274;2022-11-20T11:51:33;7.10;99.90
19755;DHT22;10036;47.812;9.274;2022-11-20T11:54:05;7.00;99.90
19755;DHT22;10036;47.812;9.274;2022-11-20T11:56:38;7.00;99.90
19755;DHT22;10036;47.812;9.274;2022-11-20T11:59:08;7.00;99.90
19755;DHT22;10036;47.812;9.274;2022-11-20T12:01:44;7.00;99.90
19755;DHT22;10036;47.812;9.274;2022-11-20T12:04:19;7.10;99.90
19755;DHT22;10036;47.812;9.274;2022-11-20T12:06:53;7.20;99.90
19755;DHT22;10036;47.812;9.274;2022-11-20T12:09:26;7.10;99.90
19755;DHT22;10036;47.812;9.274;2022-11-20T12:12:01;7.10;99.90
19755;DHT22;10036;47.812;9.274;2022-11-20T12:14:34;7.20;99.90
19755;DHT22;10036;47.812;9.274;2022-11-20T12:17:02;7.10;99.90
19755;DHT22;10036;47.812;9.274;2022-11-20T12:19:30;7.20;99.90
19755;DHT22;10036;47.812;9.274;2022-11-20T12:22:04;7.30;99.90
19755;DHT22;10036;47.812;9.274;2022-11-20T12:24:44;7.20;99.90
19755;DHT22;10036;47.812;9.274;2022-11-20T12:27:35;7.20;99.90
19755;DHT22;10036;47.812;9.274;2022-11-20T12:30:08;7.10;99.90
19755;DHT22;10036;47.812;9.274;2022-11-20T12:32:58;7.10;99.90
19755;DHT22;10036;47.812;9.274;2022-11-20T12:36:04;7.10;99.90
19755;DHT22;10036;47.812;9.274;2022-11-20T12:38:56;7.20;99.90
19755;DHT22;10036;47.812;9.274;2022-11-20T12:41:40;7.20;99.90
19755;DHT22;10036;47.812;9.274;2022-11-20T12:44:40;7.20;99.90
19755;DHT22;10036;47.812;9.274;2022-11-20T12:47:33;7.30;99.90
19755;DHT22;10036;47.812;9.274;2022-11-20T12:50:12;7.30;99.90
19755;DHT22;10036;47.812;9.274;2022-11-20T12:52:46;7.40;99.90
19755;DHT22;10036;47.812;9.274;2022-11-20T12:55:28;7.50;99.90
19755;DHT22;10036;47.812;9.274;2022-11-20T12:58:05;7.60;99.90
19755;DHT22;10036;47.812;9.274;2022-11-20T13:00:43;7.70;99.90
19755;DHT22;10036;47.812;9.274;2022-11-20T13:03:39;7.90;99.90
19755;DHT22;10036;47.812;9.274;2022-11-20T13:06:14;7.80;99.90
19755;DHT22;10036;47.812;9.274;2022-11-20T13:08:47;7.90;99.90
19755;DHT22;10036;47.812;9.274;2022-11-20T13:11:21;7.70;99.90
19755;DHT22;10036;47.812;9.274;2022-11-20T13:14:11;7.60;99.90
19755;DHT22;10036;47.812;9.274;2022-11-20T13:16:47;7.50;99.90
19755;DHT22;10036;47.812;9.274;2022-11-20T13:19:17;7.40;99.90
19755;DHT22;10036;47.812;9.274;2022-11-20T13:21:45;7.50;99.90
19755;DHT22;10036;47.812;9.274;2022-11-20T13:24:26;7.50;99.90
19755;DHT22;10036;47.812;9.274;2022-11-20T13:27:17;7.50;99.90
19755;DHT22;10036;47.812;9.274;2022-11-20T13:29:46;7.40;99.90
19755;DHT22;10036;47.812;9.274;2022-11-20T13:32:24;7.30;99.90
19755;DHT22;10036;47.812;9.274;2022-11-20T13:34:52;7.40;99.90
19755;DHT22;10036;47.812;9.274;2022-11-20T13:37:26;7.40;99.90
19755;DHT22;10036;47.812;9.274;2022-11-20T13:40:06;7.40;99.90
19755;DHT22;10036;47.812;9.274;2022-11-20T13:42:43;7.40;99.90
19755;DHT22;10036;47.812;9.274;2022-11-20T13:45:20;7.60;99.90
19755;DHT22;10036;47.812;9.274;2022-11-20T13:47:49;7.60;99.90
19755;DHT22;10036;47.812;9.274;2022-11-20T13:50:16;7.60;99.90
19755;DHT22;10036;47.812;9.274;2022-11-20T13:52:49;7.50;99.90
19755;DHT22;10036;47.812;9.274;2022-11-20T13:55:25;7.50;99.90
19755;DHT22;10036;47.812;9.274;2022-11-20T13:58:03;7.60;99.90
19755;DHT22;10036;47.812;9.274;2022-11-20T14:00:32;7.70;99.90
19755;DHT22;10036;47.812;9.274;2022-11-20T14:03:09;7.70;99.90
19755;DHT22;10036;47.812;9.274;2022-11-20T14:05:40;7.70;99.90
19755;DHT22;10036;47.812;9.274;2022-11-20T14:08:14;7.70;99.90
19755;DHT22;10036;47.812;9.274;2022-11-20T14:10:44;7.60;99.90
19755;DHT22;10036;47.812;9.274;2022-11-20T14:13:15;7.50;99.90
19755;DHT22;10036;47.812;9.274;2022-11-20T14:15:44;7.50;99.90
19755;DHT22;10036;47.812;9.274;2022-11-20T14:18:18;7.50;99.90
19755;DHT22;10036;47.812;9.274;2022-11-20T14:20:46;7.40;99.90
19755;DHT22;10036;47.812;9.274;2022-11-20T14:23:23;7.30;99.90
19755;DHT22;10036;47.812;9.274;2022-11-20T14:25:50;7.30;99.90
19755;DHT22;10036;47.812;9.274;2022-11-20T14:28:24;7.30;99.90
19755;DHT22;10036;47.812;9.274;2022-11-20T14:30:52;7.30;99.90
19755;DHT22;10036;47.812;9.274;2022-11-20T14:33:19;7.30;99.90
19755;DHT22;10036;47.812;9.274;2022-11-20T14:35:52;7.40;99.90
19755;DHT22;10036;47.812;9.274;2022-11-20T14:38:22;7.40;99.90
19755;DHT22;10036;47.812;9.274;2022-11-20T14:40:50;7.40;99.90
19755;DHT22;10036;47.812;9.274;2022-11-20T14:43:23;7.40;99.90
19755;DHT22;10036;47.812;9.274;2022-11-20T14:45:56;7.30;99.90
19755;DHT22;10036;47.812;9.274;2022-11-20T14:48:29;7.20;99.90
19755;DHT22;10036;47.812;9.274;2022-11-20T14:50:57;7.20;99.90
19755;DHT22;10036;47.812;9.274;2022-11-20T14:53:24;7.20;99.90
19755;DHT22;10036;47.812;9.274;2022-11-20T14:55:56;7.20;99.90
19755;DHT22;10036;47.812;9.274;2022-11-20T14:58:26;7.20;99.90
19755;DHT22;10036;47.812;9.274;2022-11-20T15:00:54;7.20;99.90
19755;DHT22;10036;47.812;9.274;2022-11-20T15:03:22;7.10;99.90
19755;DHT22;10036;47.812;9.274;2022-11-20T15:05:50;7.00;99.90
19755;DHT22;10036;47.812;9.274;2022-11-20T15:08:18;7.00;99.90
19755;DHT22;10036;47.812;9.274;2022-11-20T15:10:46;6.90;99.90
19755;DHT22;10036;47.812;9.274;2022-11-20T15:13:16;6.90;99.90
19755;DHT22;10036;47.812;9.274;2022-11-20T15:15:47;6.80;99.90
19755;DHT22;10036;47.812;9.274;2022-11-20T15:18:16;6.80;99.90
19755;DHT22;10036;47.812;9.274;2022-11-20T15:20:44;6.80;99.90
19755;DHT22;10036;47.812;9.274;2022-11-20T15:23:12;6.70;99.90
19755;DHT22;10036;47.812;9.274;2022-11-20T15:25:40;6.70;99.90
19755;DHT22;10036;47.812;9.274;2022-11-20T15:28:15;6.70;99.90
19755;DHT22;10036;47.812;9.274;2022-11-20T15:30:42;6.70;99.90
19755;DHT22;10036;47.812;9.274;2022-11-20T15:33:10;6.60;99.90
19755;DHT22;10036;47.812;9.274;2022-11-20T15:35:37;6.50;99.90
19755;DHT22;10036;47.812;9.274;2022-11-20T15:38:04;6.50;99.90
19755;DHT22;10036;47.812;9.274;2022-11-20T15:40:31;6.50;99.90
19755;DHT22;10036;47.812;9.274;2022-11-20T15:42:59;6.50;99.90
19755;DHT22;10036;47.812;9.274;2022-11-20T15:45:37;6.50;99.90
19755;DHT22;10036;47.812;9.274;2022-11-20T15:48:08;6.40;99.90
19755;DHT22;10036;47.812;9.274;2022-11-20T15:50:47;6.40;99.90
19755;DHT22;10036;47.812;9.274;2022-11-20T15:53:15;6.30;99.90
19755;DHT22;10036;47.812;9.274;2022-11-20T15:55:43;6.20;99.90
19755;DHT22;10036;47.812;9.274;2022-11-20T15:58:09;6.20;99.90
19755;DHT22;10036;47.812;9.274;2022-11-20T16:00:36;6.20;99.90
19755;DHT22;10036;47.812;9.274;2022-11-20T16:03:03;6.10;99.90
19755;DHT22;10036;47.812;9.274;2022-11-20T16:05:30;6.10;99.90
19755;DHT22;10036;47.812;9.274;2022-11-20T16:07:58;6.00;99.90
19755;DHT22;10036;47.812;9.274;2022-11-20T16:10:27;5.90;99.90
19755;DHT22;10036;47.812;9.274;2022-11-20T16:12:54;5.90;99.90
19755;DHT22;10036;47.812;9.274;2022-11-20T16:15:37;5.80;99.90
19755;DHT22;10036;47.812;9.274;2022-11-20T16:18:15;5.80;99.90
19755;DHT22;10036;47.812;9.274;2022-11-20T16:20:43;5.70;99.90
19755;DHT22;10036;47.812;9.274;2022-11-20T16:23:12;5.70;99.90
19755;DHT22;10036;47.812;9.274;2022-11-20T16:25:39;5.60;99.90
19755;DHT22;10036;47.812;9.274;2022-11-20T16:28:05;5.60;99.90